createdAt,value
2018-06-04T00:01:02.004Z,58.80
2018-06-04T00:06:05.297Z,58.60
2018-06-04T00:11:08.580Z,58.80
2018-06-04T00:16:11.857Z,59.40
2018-06-04T00:21:15.112Z,58.70
2018-06-04T00:26:18.387Z,58.80
2018-06-04T00:31:21.663Z,58.80
2018-06-04T00:36:24.896Z,58.80
2018-06-04T00:41:28.153Z,58.80
2018-06-04T00:46:31.428Z,59.00
2018-06-04T00:51:34.716Z,58.90
2018-06-04T00:56:37.955Z,59.10
2018-06-04T01:01:41.191Z,58.90
2018-06-04T01:06:44.496Z,58.70
2018-06-04T01:11:47.748Z,58.90
2018-06-04T01:16:51.025Z,59.00
2018-06-04T01:21:54.294Z,59.00
2018-06-04T01:26:57.559Z,59.10
2018-06-04T01:32:00.809Z,59.20
2018-06-04T01:37:04.106Z,59.00
2018-06-04T01:47:10.344Z,59.00
2018-06-04T01:52:13.605Z,59.10
2018-06-04T01:57:16.865Z,59.20
2018-06-04T02:02:20.111Z,59.20
2018-06-04T02:07:23.533Z,59.00
2018-06-04T02:12:26.801Z,59.20
2018-06-04T02:17:30.036Z,59.30
2018-06-04T02:22:33.271Z,59.30
2018-06-04T02:27:36.533Z,59.20
2018-06-04T02:32:39.768Z,59.10
2018-06-04T02:37:43.042Z,59.20
2018-06-04T02:42:46.298Z,59.10
2018-06-04T02:47:49.548Z,59.20
2018-06-04T02:52:52.807Z,59.10
2018-06-04T02:57:56.035Z,59.20
2018-06-04T03:02:59.345Z,59.30
2018-06-04T03:08:02.604Z,59.20
2018-06-04T03:13:05.905Z,59.00
2018-06-04T03:18:09.135Z,59.20
2018-06-04T03:23:12.382Z,59.10
2018-06-04T03:28:15.609Z,59.30
2018-06-04T03:33:18.844Z,59.20
2018-06-04T03:38:22.083Z,59.10
2018-06-04T03:43:25.300Z,59.40
2018-06-04T03:48:28.524Z,59.20
2018-06-04T03:53:31.784Z,59.50
2018-06-04T03:58:35.037Z,59.40
2018-06-04T04:03:38.255Z,59.40
2018-06-04T04:08:41.520Z,59.20
2018-06-04T04:13:44.760Z,59.20
2018-06-04T04:18:47.983Z,59.00
2018-06-04T04:23:51.220Z,59.50
2018-06-04T04:28:54.449Z,59.20
2018-06-04T04:33:57.671Z,59.30
2018-06-04T04:39:01.770Z,59.20
2018-06-04T04:44:05.204Z,59.40
2018-06-04T04:49:08.472Z,59.10
2018-06-04T04:54:12.095Z,59.00
2018-06-04T04:59:15.384Z,59.40
2018-06-04T05:04:18.624Z,59.40
2018-06-04T05:09:21.864Z,59.20
2018-06-04T05:14:25.180Z,59.40
2018-06-04T05:19:28.405Z,59.20
2018-06-04T05:24:31.624Z,59.80
2018-06-04T05:29:34.876Z,59.30
2018-06-04T05:34:38.124Z,59.20
2018-06-04T05:39:41.371Z,59.20
2018-06-04T05:44:44.613Z,59.90
2018-06-04T05:49:47.852Z,59.20
2018-06-04T05:54:51.107Z,59.70
2018-06-04T05:59:54.324Z,59.70
2018-06-04T06:04:57.556Z,59.30
2018-06-04T06:10:00.825Z,59.40
2018-06-04T06:15:04.128Z,59.00
2018-06-04T06:20:07.387Z,58.90
2018-06-04T06:25:10.657Z,59.20
2018-06-04T06:30:13.861Z,58.70
2018-06-04T06:35:17.088Z,58.80
2018-06-04T06:40:20.324Z,58.70
2018-06-04T06:45:23.581Z,58.70
2018-06-04T06:50:26.828Z,58.50
2018-06-04T06:55:30.072Z,58.70
2018-06-04T07:00:33.287Z,58.50
2018-06-04T07:05:36.525Z,58.50
2018-06-04T07:10:39.808Z,58.20
2018-06-04T07:15:43.070Z,58.50
2018-06-04T07:20:46.320Z,58.50
2018-06-04T07:25:49.570Z,58.30
2018-06-04T07:30:52.831Z,59.10
2018-06-04T07:36:07.682Z,59.40
2018-06-04T07:41:10.925Z,59.40
2018-06-04T07:46:14.180Z,59.30
2018-06-04T07:51:17.421Z,59.40
2018-06-04T07:56:20.688Z,59.30
2018-06-04T08:01:23.957Z,59.80
2018-06-04T08:06:27.305Z,59.50
2018-06-04T08:11:30.512Z,60.00
2018-06-04T08:16:33.783Z,59.40
2018-06-04T08:21:37.009Z,60.10
2018-06-04T08:26:40.239Z,60.20
2018-06-04T08:31:43.644Z,59.10
2018-06-04T08:36:47.017Z,59.00
2018-06-04T08:41:50.240Z,60.20
2018-06-04T08:46:53.476Z,59.20
2018-06-04T08:51:56.729Z,60.60
2018-06-04T08:56:59.992Z,59.70
2018-06-04T09:02:03.277Z,60.80
2018-06-04T09:07:06.556Z,59.80
2018-06-04T09:12:09.824Z,60.40
2018-06-04T09:17:13.080Z,61.30
2018-06-04T09:22:16.339Z,59.80
2018-06-04T09:27:19.608Z,59.80
2018-06-04T09:32:22.915Z,59.40
2018-06-04T09:37:26.144Z,59.60
2018-06-04T09:42:29.404Z,59.10
2018-06-04T09:47:32.713Z,58.90
2018-06-04T09:52:35.937Z,60.10
2018-06-04T09:57:39.163Z,61.00
2018-06-04T10:02:42.431Z,59.40
2018-06-04T10:07:45.689Z,58.80
2018-06-04T10:17:51.952Z,57.60
2018-06-04T10:22:55.235Z,60.20
2018-06-04T10:27:58.505Z,57.50
2018-06-04T10:33:01.737Z,59.40
2018-06-04T10:38:04.988Z,58.40
2018-06-04T10:43:08.223Z,59.80
2018-06-04T10:48:11.489Z,58.60
2018-06-04T10:53:14.708Z,58.20
2018-06-04T10:58:17.931Z,58.30
2018-06-04T11:03:21.176Z,58.10
2018-06-04T11:08:24.436Z,58.50
2018-06-04T11:13:27.742Z,57.80
2018-06-04T11:18:31.000Z,60.10
2018-06-04T11:23:34.248Z,56.60
2018-06-04T11:28:37.504Z,57.60
2018-06-04T11:33:40.768Z,55.60
2018-06-04T11:38:44.004Z,56.90
2018-06-04T11:43:47.279Z,58.70
2018-06-04T11:48:50.589Z,58.10
2018-06-04T11:53:53.837Z,58.10
2018-06-04T11:58:57.101Z,58.80
2018-06-04T12:04:00.364Z,56.20
2018-06-04T12:09:04.856Z,57.60
2018-06-04T12:14:08.123Z,57.20
2018-06-04T12:19:11.375Z,55.90
2018-06-04T12:24:14.628Z,55.50
2018-06-04T12:29:17.887Z,57.00
2018-06-04T12:34:21.146Z,56.60
2018-06-04T12:39:24.432Z,54.30
2018-06-04T12:44:27.679Z,55.20
2018-06-04T12:49:30.948Z,56.90
2018-06-04T12:54:34.215Z,58.80
2018-06-04T12:59:37.455Z,56.90
2018-06-04T13:04:40.780Z,58.60
2018-06-04T13:09:44.017Z,58.60
2018-06-04T13:14:47.255Z,59.10
2018-06-04T13:19:50.516Z,59.00
2018-06-04T13:24:53.743Z,58.50
2018-06-04T13:29:57.019Z,57.60
2018-06-04T13:35:00.283Z,54.80
2018-06-04T13:40:03.550Z,57.90
2018-06-04T13:45:06.805Z,58.80
2018-06-04T13:50:10.079Z,56.20
2018-06-04T13:55:13.340Z,58.20
2018-06-04T14:00:16.610Z,58.00
2018-06-04T14:05:19.895Z,57.10
2018-06-04T14:10:23.327Z,57.00
2018-06-04T14:15:26.590Z,56.70
2018-06-04T14:20:29.864Z,54.80
2018-06-04T14:25:33.136Z,55.70
2018-06-04T14:30:36.396Z,54.40
2018-06-04T14:35:39.688Z,55.70
2018-06-04T14:40:43.035Z,57.70
2018-06-04T14:45:46.448Z,57.10
2018-06-04T14:50:49.724Z,57.00
2018-06-04T14:55:53.008Z,56.10
2018-06-04T15:00:56.309Z,54.90
2018-06-04T15:05:59.627Z,54.80
2018-06-04T15:11:02.895Z,55.40
2018-06-04T15:16:06.304Z,55.10
2018-06-04T15:21:09.681Z,55.50
2018-06-04T15:26:12.963Z,56.00
2018-06-04T15:31:16.188Z,55.20
2018-06-04T15:36:19.434Z,55.50
2018-06-04T15:41:22.664Z,54.80
2018-06-04T15:46:26.300Z,55.70
2018-06-04T15:51:29.532Z,55.00
2018-06-04T15:56:32.751Z,55.60
2018-06-04T16:01:36.000Z,54.20
2018-06-04T16:11:42.384Z,55.20
2018-06-04T16:16:45.644Z,55.50
2018-06-04T16:21:48.922Z,55.00
2018-06-04T16:26:52.164Z,54.20
2018-06-04T16:31:55.441Z,54.10
2018-06-04T16:36:58.683Z,55.30
2018-06-04T16:42:01.935Z,54.80
2018-06-04T16:47:05.201Z,54.50
2018-06-04T16:52:08.627Z,54.70
2018-06-04T16:57:11.993Z,54.60
2018-06-04T17:02:15.249Z,54.70
2018-06-04T17:07:18.579Z,53.90
2018-06-04T17:12:21.856Z,54.50
2018-06-04T17:17:26.072Z,54.40
2018-06-04T17:22:29.387Z,54.70
2018-06-04T17:27:32.687Z,54.70
2018-06-04T17:32:35.976Z,54.20
2018-06-04T17:37:39.236Z,54.00
2018-06-04T17:42:42.524Z,54.50
2018-06-04T17:47:45.772Z,54.00
2018-06-04T17:52:49.040Z,53.70
2018-06-04T17:57:52.302Z,54.10
2018-06-04T18:02:55.564Z,54.40
2018-06-04T18:07:58.853Z,54.20
2018-06-04T18:13:02.091Z,54.00
2018-06-04T18:18:05.447Z,54.10
2018-06-04T18:23:08.706Z,54.30
2018-06-04T18:28:12.097Z,53.90
2018-06-04T18:33:15.319Z,53.70
2018-06-04T18:38:18.636Z,53.60
2018-06-04T18:43:21.891Z,53.50
2018-06-04T18:48:25.171Z,53.30
2018-06-04T18:53:28.435Z,52.90
2018-06-04T18:58:31.676Z,53.20
2018-06-04T19:03:34.920Z,53.30
2018-06-04T19:08:38.244Z,53.40
2018-06-04T19:13:41.484Z,53.70
2018-06-04T19:18:44.744Z,54.00
2018-06-04T19:23:48.068Z,54.20
2018-06-04T19:28:51.339Z,53.80
2018-06-04T19:33:54.792Z,53.10
2018-06-04T19:38:58.051Z,53.20
2018-06-04T19:44:01.312Z,53.10
2018-06-04T19:49:04.602Z,53.50
2018-06-04T19:54:08.032Z,53.80
2018-06-04T19:59:11.439Z,53.80
2018-06-04T20:04:14.707Z,54.80
2018-06-04T20:09:17.999Z,54.50
2018-06-04T20:14:21.255Z,54.60
2018-06-04T20:19:24.512Z,55.00
2018-06-04T20:24:27.775Z,55.20
2018-06-04T20:29:31.527Z,55.30
2018-06-04T20:34:34.804Z,55.40
2018-06-04T20:39:38.110Z,55.40
2018-06-04T20:44:42.278Z,55.40
2018-06-04T20:49:46.556Z,55.40
2018-06-04T20:54:49.824Z,55.30
2018-06-04T20:59:54.826Z,55.40
2018-06-04T21:04:58.283Z,55.60
2018-06-04T21:10:01.585Z,55.60
2018-06-04T21:15:04.896Z,55.60
2018-06-04T21:20:08.211Z,55.60
2018-06-04T21:25:11.485Z,55.60
2018-06-04T21:30:14.784Z,55.60
2018-06-04T21:35:18.051Z,55.70
2018-06-04T21:40:21.323Z,55.60
2018-06-04T21:45:24.593Z,55.70
2018-06-04T21:50:27.956Z,55.80
2018-06-04T21:55:31.228Z,55.80
2018-06-04T22:00:34.499Z,55.80
2018-06-04T22:05:37.766Z,56.00
2018-06-04T22:10:41.066Z,55.90
2018-06-04T22:15:44.352Z,56.00
2018-06-04T22:20:47.640Z,56.00
2018-06-04T22:25:50.915Z,56.00
2018-06-04T22:30:54.192Z,56.00
2018-06-04T22:35:57.482Z,56.10
2018-06-04T22:41:00.743Z,56.10
2018-06-04T22:46:04.040Z,56.10
2018-06-04T22:51:07.320Z,56.20
2018-06-04T22:56:10.609Z,56.30
2018-06-04T23:01:13.883Z,56.30
2018-06-04T23:06:17.150Z,56.30
2018-06-04T23:11:20.417Z,56.40
2018-06-04T23:16:23.687Z,56.30
2018-06-04T23:21:26.925Z,56.30
2018-06-04T23:26:30.201Z,56.30
2018-06-04T23:31:33.436Z,57.10
2018-06-04T23:36:36.664Z,56.50
2018-06-04T23:41:39.919Z,56.50
2018-06-04T23:46:43.171Z,56.50
2018-06-04T23:51:46.410Z,56.50
2018-06-04T23:56:49.667Z,56.60
